createdAt,value
2018-11-01T00:02:28.491Z,31.34
2018-11-01T00:04:58.643Z,31.22
2018-11-01T00:07:28.319Z,31.87
2018-11-01T00:09:58.094Z,31.32
2018-11-01T00:12:28.104Z,32.08
2018-11-01T00:14:57.885Z,31.62
2018-11-01T00:17:27.583Z,30.98
2018-11-01T00:19:57.334Z,31.77
2018-11-01T00:22:27.223Z,30.93
2018-11-01T00:24:57.011Z,31.05
2018-11-01T00:27:26.723Z,32.09
2018-11-01T00:29:56.434Z,31.65
2018-11-01T00:32:26.485Z,31.35
2018-11-01T00:34:56.483Z,31.72
2018-11-01T00:37:26.311Z,31.36
2018-11-01T00:39:56.184Z,31.88
2018-11-01T00:42:25.935Z,31.43
2018-11-01T00:44:55.727Z,31.30
2018-11-01T00:47:26.068Z,31.74
2018-11-01T00:49:55.938Z,31.85
2018-11-01T00:52:25.688Z,31.50
2018-11-01T00:54:55.674Z,31.32
2018-11-01T00:57:25.543Z,32.49
2018-11-01T00:59:55.355Z,32.30
2018-11-01T01:02:25.059Z,32.64
2018-11-01T01:04:54.569Z,32.88
2018-11-01T01:07:24.358Z,32.22
2018-11-01T01:09:55.671Z,32.38
2018-11-01T01:12:25.411Z,31.46
2018-11-01T01:14:55.611Z,32.22
2018-11-01T01:17:25.430Z,32.67
2018-11-01T01:20:01.010Z,32.55
2018-11-01T01:22:34.123Z,31.66
2018-11-01T01:25:05.978Z,31.42
2018-11-01T01:27:35.831Z,31.42
2018-11-01T01:30:14.633Z,31.77
2018-11-01T01:32:44.982Z,31.47
2018-11-01T01:35:15.122Z,31.85
2018-11-01T01:37:45.518Z,32.08
2018-11-01T01:40:15.650Z,31.85
2018-11-01T01:42:52.526Z,31.71
2018-11-01T01:45:22.607Z,31.66
2018-11-01T01:47:52.430Z,32.75
2018-11-01T01:50:22.280Z,32.51
2018-11-01T01:52:52.062Z,32.51
2018-11-01T01:55:21.827Z,32.27
2018-11-01T01:57:51.675Z,32.79
2018-11-01T02:00:21.799Z,32.37
2018-11-01T02:02:52.615Z,32.68
2018-11-01T02:05:22.439Z,31.92
2018-11-01T02:07:52.107Z,33.10
2018-11-01T02:10:22.063Z,32.49
2018-11-01T02:12:51.804Z,33.16
2018-11-01T02:15:22.025Z,33.45
2018-11-01T02:17:51.689Z,32.45
2018-11-01T02:20:21.915Z,33.12
2018-11-01T02:22:51.615Z,32.79
2018-11-01T02:25:21.442Z,32.84
2018-11-01T02:27:56.201Z,33.11
2018-11-01T02:30:26.078Z,33.15
2018-11-01T02:32:56.024Z,32.53
2018-11-01T02:35:26.063Z,33.06
2018-11-01T02:37:55.887Z,33.54
2018-11-01T02:40:25.732Z,34.02
2018-11-01T02:42:55.450Z,33.91
2018-11-01T02:45:25.063Z,34.13
2018-11-01T02:47:54.866Z,33.71
2018-11-01T02:50:24.649Z,34.36
2018-11-01T02:52:54.672Z,33.34
2018-11-01T02:55:24.749Z,33.87
2018-11-01T02:57:54.555Z,33.95
2018-11-01T03:00:24.389Z,33.83
2018-11-01T03:02:54.748Z,33.70
2018-11-01T03:05:24.875Z,33.56
2018-11-01T03:07:54.618Z,34.35
2018-11-01T03:10:24.419Z,34.20
2018-11-01T03:12:54.731Z,34.58
2018-11-01T03:15:24.483Z,33.97
2018-11-01T03:17:54.168Z,33.39
2018-11-01T03:20:24.291Z,33.86
2018-11-01T03:22:54.092Z,34.49
2018-11-01T03:25:23.943Z,34.97
2018-11-01T03:27:54.053Z,33.73
2018-11-01T03:30:23.871Z,34.95
2018-11-01T03:32:53.890Z,34.31
2018-11-01T03:35:23.695Z,34.80
2018-11-01T03:37:53.682Z,35.26
2018-11-01T03:40:23.521Z,34.80
2018-11-01T03:42:53.472Z,34.07
2018-11-01T03:45:23.381Z,35.09
2018-11-01T03:47:53.197Z,35.59
2018-11-01T03:50:22.968Z,34.46
2018-11-01T03:52:52.748Z,35.34
2018-11-01T03:55:22.907Z,34.36
2018-11-01T03:57:52.674Z,35.06
2018-11-01T04:00:22.563Z,35.32
2018-11-01T04:02:52.428Z,35.10
2018-11-01T04:05:22.196Z,34.71
2018-11-01T04:07:51.954Z,35.14
2018-11-01T04:10:21.738Z,35.76
2018-11-01T04:12:51.463Z,35.58
2018-11-01T04:15:21.328Z,34.69
2018-11-01T04:17:51.031Z,34.74
2018-11-01T04:20:20.958Z,34.95
2018-11-01T04:22:50.989Z,36.09
2018-11-01T04:25:20.786Z,34.90
2018-11-01T04:27:50.623Z,34.64
2018-11-01T04:30:20.403Z,34.87
2018-11-01T04:32:50.481Z,35.36
2018-11-01T04:35:20.375Z,35.92
2018-11-01T04:37:50.386Z,35.82
2018-11-01T04:40:20.777Z,35.55
2018-11-01T04:42:50.914Z,35.88
2018-11-01T04:45:20.741Z,35.33
2018-11-01T04:47:50.575Z,35.68
2018-11-01T04:50:20.502Z,35.48
2018-11-01T04:52:50.338Z,35.74
2018-11-01T04:55:20.135Z,35.66
2018-11-01T04:57:49.850Z,35.93
2018-11-01T05:00:19.687Z,36.40
2018-11-01T05:02:49.410Z,35.62
2018-11-01T05:05:19.143Z,36.09
2018-11-01T05:07:48.929Z,37.94
2018-11-01T05:10:18.637Z,36.74
2018-11-01T05:12:48.308Z,37.63
2018-11-01T05:15:18.234Z,36.70
2018-11-01T05:17:47.829Z,36.56
2018-11-01T05:20:17.584Z,36.67
2018-11-01T05:22:47.483Z,36.73
2018-11-01T05:25:17.421Z,36.40
2018-11-01T05:27:47.206Z,37.43
2018-11-01T05:30:16.958Z,36.73
2018-11-01T05:32:46.758Z,36.97
2018-11-01T05:35:16.741Z,36.64
2018-11-01T05:37:46.287Z,37.65
2018-11-01T05:40:16.138Z,38.30
2018-11-01T05:42:46.023Z,38.73
2018-11-01T05:45:15.878Z,38.82
2018-11-01T05:47:45.590Z,38.65
2018-11-01T05:50:15.322Z,38.43
2018-11-01T05:52:45.019Z,39.01
2018-11-01T05:55:14.775Z,39.00
2018-11-01T05:57:44.670Z,39.27
2018-11-01T06:00:14.844Z,39.08
2018-11-01T06:02:46.783Z,38.71
2018-11-01T06:05:16.514Z,39.31
2018-11-01T06:07:56.152Z,39.40
2018-11-01T06:10:26.342Z,38.96
2018-11-01T06:12:56.702Z,39.62
2018-11-01T06:18:23.753Z,39.52
2018-11-01T06:20:53.524Z,38.90
2018-11-01T06:23:23.436Z,39.55
2018-11-01T06:25:53.361Z,39.28
2018-11-01T06:28:23.122Z,39.25
2018-11-01T06:30:52.804Z,39.22
2018-11-01T06:33:22.479Z,39.49
2018-11-01T06:35:53.107Z,38.48
2018-11-01T06:38:22.993Z,38.24
2018-11-01T06:40:52.666Z,38.24
2018-11-01T06:43:22.367Z,38.28
2018-11-01T06:45:51.875Z,39.32
2018-11-01T06:48:21.377Z,38.69
2018-11-01T06:50:51.232Z,38.77
2018-11-01T06:53:20.991Z,39.45
2018-11-01T06:55:50.771Z,39.79
2018-11-01T06:58:20.617Z,38.89
2018-11-01T07:00:50.391Z,38.66
2018-11-01T07:03:20.174Z,38.25
2018-11-01T07:05:49.969Z,38.67
2018-11-01T07:08:19.768Z,39.16
2018-11-01T07:10:49.836Z,37.97
2018-11-01T07:13:19.729Z,39.01
2018-11-01T07:15:49.800Z,38.12
2018-11-01T07:18:20.025Z,37.91
2018-11-01T07:20:49.957Z,39.22
2018-11-01T07:23:19.926Z,38.20
2018-11-01T07:25:49.898Z,38.70
2018-11-01T07:28:19.750Z,38.21
2018-11-01T07:30:49.479Z,37.47
2018-11-01T07:33:19.235Z,37.72
2018-11-01T07:35:49.029Z,37.84
2018-11-01T07:38:18.817Z,39.48
2018-11-01T07:40:48.855Z,38.28
2018-11-01T07:43:18.903Z,38.50
2018-11-01T07:45:48.595Z,39.50
2018-11-01T07:48:18.222Z,39.06
2018-11-01T07:50:47.915Z,39.12
2018-11-01T07:53:17.675Z,39.39
2018-11-01T07:55:47.475Z,36.35
2018-11-01T07:58:17.303Z,33.16
2018-11-01T08:00:46.786Z,35.14
2018-11-01T08:03:16.310Z,35.64
2018-11-01T08:05:46.225Z,36.97
2018-11-01T08:08:16.020Z,36.41
2018-11-01T08:10:45.732Z,37.06
2018-11-01T08:13:15.476Z,37.16
2018-11-01T08:15:45.361Z,37.70
2018-11-01T08:18:15.198Z,37.23
2018-11-01T08:20:44.919Z,38.01
2018-11-01T08:23:14.739Z,38.07
2018-11-01T08:25:44.490Z,38.91
2018-11-01T08:28:14.287Z,37.66
2018-11-01T08:30:44.040Z,38.94
2018-11-01T08:33:13.887Z,38.30
2018-11-01T08:35:43.699Z,38.32
2018-11-01T08:38:13.506Z,38.15
2018-11-01T08:40:43.275Z,38.67
2018-11-01T08:43:13.163Z,39.78
2018-11-01T08:45:43.002Z,39.83
2018-11-01T08:48:13.119Z,38.60
2018-11-01T08:50:42.858Z,39.92
2018-11-01T08:53:12.713Z,39.63
2018-11-01T08:55:43.104Z,39.74
2018-11-01T08:58:12.907Z,38.76
2018-11-01T09:00:42.582Z,38.93
2018-11-01T09:03:12.327Z,39.39
2018-11-01T09:05:42.094Z,40.09
2018-11-01T09:08:12.000Z,39.48
2018-11-01T09:10:41.655Z,39.70
2018-11-01T09:13:11.443Z,39.71
2018-11-01T09:15:41.208Z,40.46
2018-11-01T09:18:10.947Z,39.38
2018-11-01T09:20:40.729Z,40.53
2018-11-01T09:23:10.642Z,40.50
2018-11-01T09:25:40.449Z,39.80
2018-11-01T09:28:10.435Z,40.41
2018-11-01T09:30:40.380Z,40.24
2018-11-01T09:33:10.047Z,39.83
2018-11-01T09:35:39.855Z,40.88
2018-11-01T09:38:09.500Z,39.98
2018-11-01T09:40:39.235Z,40.59
2018-11-01T09:43:09.460Z,40.35
2018-11-01T09:45:39.203Z,41.19
2018-11-01T09:48:08.879Z,40.58
2018-11-01T09:50:38.623Z,41.40
2018-11-01T09:53:08.507Z,40.83
2018-11-01T09:55:38.715Z,41.14
2018-11-01T09:58:08.394Z,41.40
2018-11-01T10:00:38.202Z,41.66
2018-11-01T10:03:08.002Z,41.00
2018-11-01T10:05:37.923Z,41.28
2018-11-01T10:08:07.662Z,42.13
2018-11-01T10:10:37.598Z,41.25
2018-11-01T10:13:07.303Z,41.48
2018-11-01T10:15:37.678Z,42.09
2018-11-01T10:18:07.701Z,41.55
2018-11-01T10:20:37.130Z,40.97
2018-11-01T10:23:07.069Z,41.62
2018-11-01T10:25:36.643Z,41.69
2018-11-01T10:28:06.685Z,41.63
2018-11-01T10:30:36.291Z,42.29
2018-11-01T10:33:06.253Z,41.20
2018-11-01T10:35:36.061Z,41.78
2018-11-01T10:38:05.812Z,41.70
2018-11-01T10:40:35.564Z,41.48
2018-11-01T10:43:05.218Z,42.65
2018-11-01T10:45:34.955Z,41.76
2018-11-01T10:48:04.768Z,42.78
2018-11-01T10:50:34.512Z,42.78
2018-11-01T10:53:04.288Z,42.17
2018-11-01T10:55:34.061Z,41.82
2018-11-01T10:58:04.112Z,42.70
2018-11-01T11:00:39.404Z,42.92
2018-11-01T11:03:09.016Z,42.81
2018-11-01T11:05:39.004Z,42.94
2018-11-01T11:08:09.162Z,42.45
2018-11-01T11:10:38.894Z,41.92
2018-11-01T11:13:08.675Z,42.08
2018-11-01T11:15:38.310Z,42.00
2018-11-01T11:18:08.501Z,41.88
2018-11-01T11:20:38.861Z,42.05
2018-11-01T11:23:08.394Z,42.61
2018-11-01T11:25:38.370Z,42.11
2018-11-01T11:28:08.138Z,42.40
2018-11-01T11:30:38.009Z,43.06
2018-11-01T11:33:07.737Z,43.07
2018-11-01T11:35:37.903Z,42.86
2018-11-01T11:38:07.624Z,43.12
2018-11-01T11:40:37.537Z,42.29
2018-11-01T11:43:07.439Z,42.44
2018-11-01T11:45:37.262Z,42.85
2018-11-01T11:48:07.587Z,42.33
2018-11-01T11:50:37.331Z,42.92
2018-11-01T11:53:07.143Z,43.24
2018-11-01T11:55:37.175Z,42.28
2018-11-01T11:58:06.971Z,43.34
2018-11-01T12:00:36.776Z,42.34
2018-11-01T12:03:06.695Z,43.66
2018-11-01T12:05:36.424Z,43.64
2018-11-01T12:08:06.134Z,42.43
2018-11-01T12:10:36.194Z,42.66
2018-11-01T12:13:06.570Z,43.80
2018-11-01T12:15:36.351Z,42.88
2018-11-01T12:18:06.195Z,43.90
2018-11-01T12:20:36.418Z,43.54
2018-11-01T12:23:06.278Z,42.67
2018-11-01T12:25:36.105Z,43.68
2018-11-01T12:28:06.158Z,43.41
2018-11-01T12:30:35.935Z,44.04
2018-11-01T12:33:05.598Z,43.99
2018-11-01T12:35:35.410Z,44.11
2018-11-01T12:38:05.431Z,43.89
2018-11-01T12:40:35.277Z,43.11
2018-11-01T12:43:05.075Z,43.82
2018-11-01T12:45:34.718Z,42.86
2018-11-01T12:48:04.400Z,43.92
2018-11-01T12:50:34.368Z,42.73
2018-11-01T12:53:04.397Z,42.79
2018-11-01T12:55:34.552Z,43.15
2018-11-01T12:58:04.282Z,43.96
2018-11-01T13:00:34.307Z,43.06
2018-11-01T13:03:04.111Z,42.96
2018-11-01T13:05:33.856Z,43.30
2018-11-01T13:08:03.561Z,44.27
2018-11-01T13:10:33.363Z,43.58
2018-11-01T13:13:03.287Z,43.91
2018-11-01T13:15:33.062Z,43.84
2018-11-01T13:18:02.904Z,44.38
2018-11-01T13:20:32.610Z,43.88
2018-11-01T13:23:02.322Z,43.50
2018-11-01T13:25:32.070Z,43.06
2018-11-01T13:28:01.839Z,43.94
2018-11-01T13:30:31.691Z,43.78
2018-11-01T13:33:02.319Z,43.80
2018-11-01T13:35:32.133Z,43.11
2018-11-01T13:38:02.178Z,44.33
2018-11-01T13:40:32.456Z,43.15
2018-11-01T13:43:01.808Z,44.27
2018-11-01T13:45:31.640Z,43.71
2018-11-01T13:48:01.451Z,44.58
2018-11-01T13:50:31.367Z,44.55
2018-11-01T13:53:01.363Z,44.93
2018-11-01T13:55:31.703Z,44.32
2018-11-01T13:58:01.452Z,44.44
2018-11-01T14:00:31.551Z,44.55
2018-11-01T14:03:01.291Z,43.91
2018-11-01T14:05:31.057Z,43.78
2018-11-01T14:08:00.822Z,44.03
2018-11-01T14:10:30.557Z,44.62
2018-11-01T14:13:00.331Z,44.17
2018-11-01T14:15:30.769Z,44.54
2018-11-01T14:18:00.643Z,44.87
2018-11-01T14:20:30.331Z,45.17
2018-11-01T14:23:00.147Z,44.75
2018-11-01T14:25:29.986Z,45.09
2018-11-01T14:27:59.719Z,44.51
2018-11-01T14:30:30.012Z,44.57
2018-11-01T14:32:59.811Z,44.44
2018-11-01T14:35:29.519Z,45.02
2018-11-01T14:37:59.306Z,45.53
2018-11-01T14:40:29.238Z,45.22
2018-11-01T14:42:59.778Z,45.55
2018-11-01T14:45:29.758Z,44.41
2018-11-01T14:47:59.522Z,44.43
2018-11-01T14:50:29.306Z,44.28
2018-11-01T14:52:59.457Z,45.42
2018-11-01T14:55:30.367Z,44.99
2018-11-01T14:58:00.091Z,44.50
2018-11-01T15:00:28.350Z,45.54
2018-11-01T15:02:58.110Z,45.76
2018-11-01T15:05:27.997Z,44.99
2018-11-01T15:07:57.982Z,45.60
2018-11-01T15:10:27.747Z,45.27
2018-11-01T15:12:57.487Z,44.70
2018-11-01T15:15:27.259Z,44.66
2018-11-01T15:17:57.043Z,44.67
2018-11-01T15:20:26.720Z,44.67
2018-11-01T15:22:56.502Z,45.25
2018-11-01T15:25:26.510Z,44.75
2018-11-01T15:27:56.310Z,45.57
2018-11-01T15:30:26.098Z,44.35
2018-11-01T15:32:55.875Z,44.65
2018-11-01T15:35:25.672Z,45.87
2018-11-01T15:37:55.519Z,45.30
2018-11-01T15:40:25.302Z,44.83
2018-11-01T15:42:55.047Z,44.49
2018-11-01T15:45:24.924Z,45.34
2018-11-01T15:47:55.209Z,45.94
2018-11-01T15:50:25.102Z,45.52
2018-11-01T15:52:55.222Z,45.79
2018-11-01T15:55:25.507Z,45.33
2018-11-01T15:57:56.128Z,46.04
2018-11-01T16:00:27.041Z,46.26
2018-11-01T16:02:57.027Z,45.19
2018-11-01T16:05:27.520Z,45.46
2018-11-01T16:07:57.706Z,45.17
2018-11-01T16:10:28.340Z,45.39
2018-11-01T16:12:58.884Z,44.89
2018-11-01T16:15:28.831Z,46.60
2018-11-01T16:17:58.527Z,45.26
2018-11-01T16:20:28.287Z,46.41
2018-11-01T16:22:58.319Z,45.30
2018-11-01T16:25:27.886Z,45.58
2018-11-01T16:27:57.714Z,45.47
2018-11-01T16:30:27.470Z,45.86
2018-11-01T16:32:57.734Z,46.46
2018-11-01T16:35:27.423Z,45.37
2018-11-01T16:37:58.800Z,46.73
2018-11-01T16:40:28.962Z,46.27
2018-11-01T16:43:00.044Z,45.47
2018-11-01T16:45:29.823Z,45.76
2018-11-01T16:47:59.636Z,45.98
2018-11-01T16:50:30.642Z,46.20
2018-11-01T16:53:00.442Z,45.61
2018-11-01T16:55:30.255Z,46.43
2018-11-01T16:58:00.860Z,46.07
2018-11-01T17:00:31.688Z,45.18
2018-11-01T17:03:02.379Z,45.12
2018-11-01T17:05:32.263Z,44.75
2018-11-01T17:08:02.324Z,44.48
2018-11-01T17:10:32.284Z,44.54
2018-11-01T17:13:03.241Z,45.52
2018-11-01T17:15:34.177Z,44.90
2018-11-01T17:18:04.083Z,44.05
2018-11-01T17:20:35.706Z,44.72
2018-11-01T17:23:06.060Z,42.95
2018-11-01T17:25:35.959Z,43.50
2018-11-01T17:28:05.948Z,42.68
2018-11-01T17:30:36.003Z,42.16
2018-11-01T17:33:06.171Z,41.79
2018-11-01T17:35:35.950Z,41.96
2018-11-01T17:38:05.910Z,41.32
2018-11-01T17:40:36.540Z,41.03
2018-11-01T17:43:07.214Z,41.20
2018-11-01T17:45:37.588Z,39.69
2018-11-01T17:48:07.800Z,39.56
2018-11-01T17:50:38.576Z,39.83
2018-11-01T17:53:08.759Z,39.42
2018-11-01T17:55:39.103Z,38.89
2018-11-01T17:58:09.122Z,37.98
2018-11-01T18:00:40.365Z,37.59
2018-11-01T18:03:10.433Z,37.03
2018-11-01T18:05:40.491Z,36.52
2018-11-01T18:08:10.548Z,35.74
2018-11-01T18:10:40.583Z,36.32
2018-11-01T18:13:10.555Z,35.99
2018-11-01T18:15:40.939Z,35.86
2018-11-01T18:18:10.860Z,35.95
2018-11-01T18:20:40.772Z,34.66
2018-11-01T18:23:11.000Z,35.08
2018-11-01T18:25:46.075Z,34.25
2018-11-01T18:28:16.894Z,34.82
2018-11-01T18:30:47.199Z,34.20
2018-11-01T18:33:17.211Z,33.50
2018-11-01T18:35:47.403Z,33.62
2018-11-01T18:38:17.219Z,32.81
2018-11-01T18:40:47.015Z,32.84
2018-11-01T18:43:17.035Z,32.95
2018-11-01T18:45:46.715Z,32.84
2018-11-01T18:48:16.911Z,31.84
2018-11-01T18:50:46.653Z,32.15
2018-11-01T18:53:17.163Z,31.38
2018-11-01T18:55:46.880Z,31.77
2018-11-01T18:58:17.088Z,31.72
2018-11-01T19:00:47.016Z,31.54
2018-11-01T19:03:20.790Z,30.58
2018-11-01T19:05:50.607Z,31.59
2018-11-01T19:08:20.666Z,31.76
2018-11-01T19:10:50.836Z,30.98
2018-11-01T19:13:20.773Z,32.21
2018-11-01T19:15:50.513Z,31.36
2018-11-01T19:18:20.344Z,30.95
2018-11-01T19:20:50.382Z,30.79
2018-11-01T19:23:20.347Z,32.08
2018-11-01T19:25:50.063Z,30.40
2018-11-01T19:28:20.071Z,30.85
2018-11-01T19:30:50.698Z,30.60
2018-11-01T19:33:20.467Z,30.55
2018-11-01T19:35:50.279Z,30.25
2018-11-01T19:38:20.898Z,30.07
2018-11-01T19:40:50.978Z,31.24
2018-11-01T19:43:21.034Z,30.31
2018-11-01T19:45:50.767Z,30.74
2018-11-01T19:48:21.244Z,31.08
2018-11-01T19:50:51.388Z,31.16
2018-11-01T19:53:21.576Z,30.53
2018-11-01T19:55:51.450Z,30.04
2018-11-01T19:58:21.656Z,30.01
2018-11-01T20:00:51.864Z,29.95
2018-11-01T20:03:22.294Z,29.54
2018-11-01T20:05:52.290Z,30.19
2018-11-01T20:08:23.057Z,29.80
2018-11-01T20:10:53.021Z,29.61
2018-11-01T20:13:24.276Z,30.05
2018-11-01T20:15:54.218Z,29.29
2018-11-01T20:18:24.321Z,30.06
2018-11-01T20:20:54.471Z,30.81
2018-11-01T20:23:25.281Z,30.59
2018-11-01T20:25:55.235Z,30.81
2018-11-01T20:28:25.231Z,30.39
2018-11-01T20:30:55.583Z,30.04
2018-11-01T20:33:25.494Z,30.82
2018-11-01T20:35:55.474Z,30.62
2018-11-01T20:38:25.446Z,30.05
2018-11-01T20:40:55.396Z,29.87
2018-11-01T20:43:25.320Z,30.18
2018-11-01T20:45:55.272Z,29.78
2018-11-01T20:48:25.453Z,30.62
2018-11-01T20:50:56.261Z,31.26
2018-11-01T20:53:26.063Z,30.08
2018-11-01T20:55:56.099Z,31.08
2018-11-01T20:58:26.005Z,30.23
2018-11-01T21:00:55.955Z,30.25
2018-11-01T21:03:25.969Z,30.41
2018-11-01T21:05:56.279Z,31.26
2018-11-01T21:08:26.499Z,30.68
2018-11-01T21:10:56.801Z,30.81
2018-11-01T21:13:26.593Z,31.51
2018-11-01T21:15:56.371Z,31.66
2018-11-01T21:18:25.875Z,31.43
2018-11-01T21:20:55.357Z,31.84
2018-11-01T21:23:24.912Z,31.53
2018-11-01T21:25:54.753Z,32.06
2018-11-01T21:28:24.727Z,31.67
2018-11-01T21:30:54.490Z,31.11
2018-11-01T21:33:24.370Z,30.82
2018-11-01T21:35:54.308Z,31.78
2018-11-01T21:38:24.159Z,31.92
2018-11-01T21:40:54.603Z,31.04
2018-11-01T21:43:24.467Z,30.67
2018-11-01T21:45:54.244Z,31.57
2018-11-01T21:48:23.889Z,31.69
2018-11-01T21:50:54.547Z,32.20
2018-11-01T21:53:24.313Z,32.97
2018-11-01T21:55:54.022Z,33.03
2018-11-01T21:58:23.843Z,34.08
2018-11-01T22:00:54.152Z,34.15
2018-11-01T22:03:23.938Z,33.67
2018-11-01T22:05:53.610Z,34.09
2018-11-01T22:08:23.355Z,34.52
2018-11-01T22:10:53.311Z,33.79
2018-11-01T22:13:23.074Z,34.34
2018-11-01T22:15:52.854Z,33.92
2018-11-01T22:18:22.590Z,34.77
2018-11-01T22:20:52.312Z,35.20
2018-11-01T22:23:22.351Z,34.58
2018-11-01T22:25:52.302Z,34.50
2018-11-01T22:28:22.090Z,34.82
2018-11-01T22:30:51.655Z,35.06
2018-11-01T22:33:21.433Z,34.59
2018-11-01T22:35:51.505Z,34.86
2018-11-01T22:38:21.427Z,33.15
2018-11-01T22:40:51.281Z,33.85
2018-11-01T22:43:21.378Z,33.36
2018-11-01T22:45:51.551Z,33.30
2018-11-01T22:48:21.462Z,33.88
2018-11-01T22:50:51.337Z,33.83
2018-11-01T22:53:21.111Z,34.29
2018-11-01T22:55:50.962Z,34.29
2018-11-01T22:58:20.835Z,34.02
2018-11-01T23:00:56.109Z,34.14
2018-11-01T23:03:25.852Z,34.22
2018-11-01T23:05:55.627Z,34.42
2018-11-01T23:08:26.158Z,34.31
2018-11-01T23:10:55.932Z,34.49
2018-11-01T23:13:25.902Z,34.99
2018-11-01T23:15:55.725Z,35.12
2018-11-01T23:18:25.856Z,35.04
2018-11-01T23:20:56.062Z,34.15
2018-11-01T23:23:25.802Z,34.67
2018-11-01T23:25:56.062Z,35.24
2018-11-01T23:28:25.842Z,34.70
2018-11-01T23:30:55.639Z,36.06
2018-11-01T23:33:25.561Z,35.22
2018-11-01T23:35:59.686Z,35.43
2018-11-01T23:38:34.592Z,34.69
2018-11-01T23:41:09.370Z,34.90
2018-11-01T23:43:44.310Z,35.81
2018-11-01T23:46:19.361Z,34.91
2018-11-01T23:48:52.518Z,35.17
2018-11-01T23:51:22.370Z,35.79
2018-11-01T23:53:52.738Z,35.14
2018-11-01T23:56:22.568Z,35.20
2018-11-01T23:58:52.335Z,35.15
